Harristown, IL

4:20 PM CDT on September 01, 2014 (GMT -0500)
Decatur | Change Station
CLOSE
Current Station
Airport
Location: Decatur,
Elevation: 682 ft
Nearby Weather Stations

Elev 682 ft 39.83 °N, 88.87 °W | Updated 26 minutes ago

Clear
Clear
82 °F
Feels Like 84 °F
N
10
Wind Variable Wind from West

Today
High -- | Low -- °F
--% Chance of Precip.
Yesterday
High -- | Low -- °F
Precip. -- in
6:24 AM 7:27 PM
Waxing Crescent, 44% visible
Pressure 29.85 in
Visibility 10.0 miles
Clouds Clear
Heat Index 84 °F
Dew Point 65 °F
Humidity 56%
Rainfall 0.00 in
Snow Depth Not available.
UV 5 out of 12
Pollen 9.70 out of 12
Air Quality Not available.
Flu Activity Not available.
METAR KDEC 012054Z 26009KT 10SM CLR 28/18 A2987 RMK AO2 SLP108 T02780183 50005

More Conditions Fewer Conditions

Pressure 29.85 in
Visibility 10.0 miles
Clouds Clear
Heat Index 84 °F
Dew Point 65 °F
Humidity 56%
Rainfall 0.00 in
Snow Depth Not available.
UV 5 out of 12
Pollen 9.70 out of 12
Air Quality Not available.
Flu Activity Not available.
METAR KDEC 012054Z 26009KT 10SM CLR 28/18 A2987 RMK AO2 SLP108 T02780183 50005

More Conditions Fewer Conditions

10-Day Weather Forecast

Almanac

Astronomy

Sep. 01, 2014 Rise Set
Actual Time 6:24 AM CDT 7:27 PM CDT
Civil Twilight 5:56 AM CDT 7:55 PM CDT
Nautical Twilight 5:23 AM CDT 8:28 PM CDT
Astronomical Twilight 4:48 AM CDT 9:02 PM CDT
Moon 1:09 PM CDT 11:29 PM CDT
Length of Visible Light 13h 58m
Length of Day
13h 03m
Tomorrow will be 2m 31s shorter.
Waxing Crescent, 44% of the Moon is Illuminated
Today
Waxing Crescent
Sep 2
First Quarter
Sep 8
Full
Sep 15
Last Quarter
Sep 24
New

Today's Extremes

State Highs State Lows

Community

WunderPhotos

Upload Photos

1,749,413 photos uploaded!

WunderBlogs® & News

Nearby

Snow Depth

Station Depth Elevation
No new snow has been reported.

Earthquake Activity

City Distance Mag. Time & Date
No recent earthquake activity has been reported nearby.
Minimum magnitude displayed is 2.5.

Coastal Water Temperatures

Place Temperature
No Stations Reporting

Nearby Weather Stations